Val-d'Or Airport
CYVO : now visible

Airfield :











YOU CAN JOIN US ON...

 
LOGIN :

Register | Disclaimer

   EN    FR    IT 

 









Legend :    VFR   Marginal VFR   IFR   Intensive IFR   Very Intensive IFR
Visi :
Ceiling :
>= 8 km
>= 3000ft
5 to 8 km
1000 to 3000 ft
1500m to 5 km
500 to 1000 ft
800 to 1500m
200 to 500 ft
< 800m
< 200 ft
Symbols :   Thunderstorms  Fog  Heavy snow  Heavy precipitations  Wind > 20 kt






- Airport Elevation : 1107 ft
- IATA code : YVO


CYVO - Val-d'Or

CURRENT METAR :
  • 110600Z AUTO 23007KT 9SM FEW110 BKN130 OVC150 23/18 A2975 RMK SLP075 DENSITY ALT 2400FT

EXPIRED METARs :
  • 110500Z AUTO 21007KT 180V250 9SM CLR 23/20 A2974 RMK SLP072 DENSITY ALT 2500FT
  • 110400Z AUTO 21008KT 9SM CLR 24/20 A2975 RMK SLP076 DENSITY ALT 2500FT

TAF TAF CYVO
Valid from the 11 at 06:00 until the 11 at 18:00 UTC


110538Z 1106/1118 21008KT P6SM SCT050
TEMPO 1106/1108 P6SM -SHRA BKN050
PROB30 1106/1108 2SM TSRA BR BKN020CB
FM110800 25010KT P6SM -SHRA SCT012 BKN040
TEMPO 1108/1110 5SM -SHRA BR OVC008
PROB30 1108/1110 2SM TSRA BR BKN006 OVC012CB
FM111000 22005KT 4SM -SHRA BR BKN005
TEMPO 1110/1114 P6SM -SHRA OVC015
FM111400 22010KT P6SM SCT005 BKN015 RMK FCST BASED ON AUTO OBS. NXT FCST BY 111200Z
CZUL FIR / North America



MET'MAP, your aeronautical weather chart ! - Copyright ORBIFLY December 2007 - Disclaimer

ORBIFLY MET'MAP TEAM :

Programming & Development : Alexandra Zaïnal
Concept & original design : Baudouin d'Aumeries
Assistance for programming : Marc-Olivier Méhu
Technical & hardware support : Manuel Goepfert

Contact : metmap@orbifly.com




SOURCES & CREDITS :

   NOAA       Earth
Advisory